PWSweather.com
Personal Weather Stations
Station Observations
MIDDLECKWX
Middle Creek, Prestonsburg, KY 41653

Middle CreekPrestonsburg, KY 41653

Lat: 37.652135, Lon: -82.829846

Elevation: 760

Station Type:

Latest ConditionsUpdated 5:50:28 PM EDT Thursday, May 25, 2017
Currently Today's Max Today's Min Today's Average
Temperature 56.7°F13.7°C 57.6°F14.2°C 54.0°F12.2°C 55.6°F13.1°C
Dew Point -4.1°F-20.1°C 44.7°F7.1°C -5.4°F-20.8°C 19.1°F-7.2°C
Winds Calm Calm Calm Calm - Calm Calm
Wind Gusts -- -- - -
Humidity 8% 65% 8% 30%
Pressure 29.61 in1002.7 mb 29.61 in1002.7 mb 29.48 in998.3 mb -
Hour Temp Dew Point Humidity Winds Wind Gusts Pressure Precip Precip Rate Daily Precip Total
05:50 PM 56.7°F13.7°C -4.1°F-20.1°C 8% Calm Calm -- 29.61 in1002.7 mb - 0.00 in0.0 mm 0.00 in0.0 mm
05:40 PM 56.7°F13.7°C -4.1°F-20.1°C 8% Calm Calm -- 29.60 in1002.4 mb - 0.00 in0.0 mm 0.00 in0.0 mm
05:30 PM 56.7°F13.7°C -4.1°F-20.1°C 8% Calm Calm -- 29.59 in1002.0 mb - 0.00 in0.0 mm 0.00 in0.0 mm
05:20 PM 56.7°F13.7°C -1.7°F-18.7°C 9% Calm Calm -- 29.59 in1002.0 mb - 0.00 in0.0 mm 0.00 in0.0 mm
05:10 PM 56.7°F13.7°C -1.7°F-18.7°C 9% Calm Calm -- 29.58 in1001.7 mb - 0.00 in0.0 mm 0.00 in0.0 mm
05:00 PM 56.3°F13.5°C -1.9°F-18.8°C 9% Calm Calm -- 29.58 in1001.7 mb - 0.00 in0.0 mm 0.00 in0.0 mm
04:50 PM 56.3°F13.5°C -1.9°F-18.8°C 9% Calm Calm -- 29.58 in1001.7 mb - 0.00 in0.0 mm 0.00 in0.0 mm
04:40 PM 56.3°F13.5°C 0.3°F-17.6°C 10% Calm Calm -- 29.57 in1001.4 mb - 0.00 in0.0 mm 0.00 in0.0 mm
04:30 PM 56.3°F13.5°C 0.3°F-17.6°C 10% Calm Calm -- 29.56 in1001.0 mb - 0.00 in0.0 mm 0.00 in0.0 mm
04:20 PM 56.3°F13.5°C 0.3°F-17.6°C 10% Calm Calm -- 29.56 in1001.0 mb - 0.00 in0.0 mm 0.00 in0.0 mm
04:10 PM 56.1°F13.4°C 0.2°F-17.7°C 10% Calm Calm -- 29.56 in1001.0 mb - 0.00 in0.0 mm 0.00 in0.0 mm
04:00 PM 56.3°F13.5°C 0.3°F-17.6°C 10% Calm Calm -- 29.55 in1000.7 mb - 0.00 in0.0 mm 0.00 in0.0 mm
03:50 PM 56.1°F13.4°C 0.2°F-17.7°C 10% Calm Calm -- 29.55 in1000.7 mb - 0.00 in0.0 mm 0.00 in0.0 mm
03:40 PM 55.9°F13.3°C 2.1°F-16.6°C 11% Calm Calm -- 29.55 in1000.7 mb - 0.00 in0.0 mm 0.00 in0.0 mm
03:30 PM 55.8°F13.2°C 1.9°F-16.7°C 11% Calm Calm -- 29.54 in1000.3 mb - 0.00 in0.0 mm 0.00 in0.0 mm
03:20 PM 55.6°F13.1°C -0.2°F-17.9°C 10% Calm Calm -- 29.54 in1000.3 mb - 0.00 in0.0 mm 0.00 in0.0 mm
03:10 PM 55.6°F13.1°C -2.5°F-19.2°C 9% Calm Calm -- 29.54 in1000.3 mb - 0.00 in0.0 mm 0.00 in0.0 mm
03:00 PM 55.6°F13.1°C -2.5°F-19.2°C 9% Calm Calm -- 29.53 in1000.0 mb - 0.00 in0.0 mm 0.00 in0.0 mm
02:50 PM 55.4°F13.0°C -2.6°F-19.2°C 9% Calm Calm -- 29.53 in1000.0 mb - 0.00 in0.0 mm 0.00 in0.0 mm
02:40 PM 55.6°F13.1°C -2.5°F-19.2°C 9% Calm Calm -- 29.53 in1000.0 mb - 0.00 in0.0 mm 0.00 in0.0 mm
02:30 PM 55.4°F13.0°C -2.6°F-19.2°C 9% Calm Calm -- 29.53 in1000.0 mb - 0.00 in0.0 mm 0.00 in0.0 mm
02:20 PM 55.4°F13.0°C -2.6°F-19.2°C 9% Calm Calm -- 29.53 in1000.0 mb - 0.00 in0.0 mm 0.00 in0.0 mm
02:10 PM 55.2°F12.9°C -2.8°F-19.3°C 9% Calm Calm -- 29.53 in1000.0 mb - 0.00 in0.0 mm 0.00 in0.0 mm
02:00 PM 55.2°F12.9°C -2.8°F-19.3°C 9% Calm Calm -- 29.53 in1000.0 mb - 0.00 in0.0 mm 0.00 in0.0 mm
01:50 PM 55.2°F12.9°C -2.8°F-19.3°C 9% Calm Calm -- 29.53 in1000.0 mb - 0.00 in0.0 mm 0.00 in0.0 mm
01:40 PM 55.2°F12.9°C -5.2°F-20.7°C 8% Calm Calm -- 29.54 in1000.3 mb - 0.00 in0.0 mm 0.00 in0.0 mm
01:30 PM 55.2°F12.9°C -2.8°F-19.3°C 9% Calm Calm -- 29.54 in1000.3 mb - 0.00 in0.0 mm 0.00 in0.0 mm
01:20 PM 55.0°F12.8°C -5.4°F-20.8°C 8% Calm Calm -- 29.54 in1000.3 mb - 0.00 in0.0 mm 0.00 in0.0 mm
01:10 PM 54.7°F12.6°C -3.2°F-19.6°C 9% Calm Calm -- 29.55 in1000.7 mb - 0.00 in0.0 mm 0.00 in0.0 mm
01:00 PM 54.5°F12.5°C -3.3°F-19.6°C 9% Calm Calm -- 29.55 in1000.7 mb - 0.00 in0.0 mm 0.00 in0.0 mm
12:50 PM 54.3°F12.4°C -1.2°F-18.4°C 10% Calm Calm -- 29.55 in1000.7 mb - 0.00 in0.0 mm 0.00 in0.0 mm
12:40 PM 54.1°F12.3°C -1.4°F-18.6°C 10% Calm Calm -- 29.55 in1000.7 mb - 0.00 in0.0 mm 0.00 in0.0 mm
12:30 PM 54.3°F12.4°C -1.2°F-18.4°C 10% Calm Calm -- 29.55 in1000.7 mb - 0.00 in0.0 mm 0.00 in0.0 mm
12:20 PM 54.3°F12.4°C -1.2°F-18.4°C 10% Calm Calm -- 29.55 in1000.7 mb - 0.00 in0.0 mm 0.00 in0.0 mm
12:10 PM 54.1°F12.3°C 0.7°F-17.4°C 11% Calm Calm -- 29.55 in1000.7 mb - 0.00 in0.0 mm 0.00 in0.0 mm
12:00 PM 54.1°F12.3°C 0.7°F-17.4°C 11% Calm Calm -- 29.55 in1000.7 mb - 0.00 in0.0 mm 0.00 in0.0 mm
11:50 AM 54.3°F12.4°C -1.2°F-18.4°C 10% Calm Calm -- 29.55 in1000.7 mb - 0.00 in0.0 mm 0.00 in0.0 mm
11:40 AM 54.3°F12.4°C 0.8°F-17.3°C 11% Calm Calm -- 29.55 in1000.7 mb - 0.00 in0.0 mm 0.00 in0.0 mm
11:30 AM 54.1°F12.3°C 0.7°F-17.4°C 11% Calm Calm -- 29.55 in1000.7 mb - 0.00 in0.0 mm 0.00 in0.0 mm
11:20 AM 54.1°F12.3°C 2.5°F-16.4°C 12% Calm Calm -- 29.55 in1000.7 mb - 0.00 in0.0 mm 0.00 in0.0 mm
11:10 AM 54.1°F12.3°C 0.7°F-17.4°C 11% Calm Calm -- 29.55 in1000.7 mb - 0.00 in0.0 mm 0.00 in0.0 mm
11:00 AM 54.1°F12.3°C 2.5°F-16.4°C 12% Calm Calm -- 29.55 in1000.7 mb - 0.00 in0.0 mm 0.00 in0.0 mm
10:50 AM 54.1°F12.3°C 5.9°F-14.5°C 14% Calm Calm -- 29.55 in1000.7 mb - 0.00 in0.0 mm 0.00 in0.0 mm
10:40 AM 54.1°F12.3°C 7.4°F-13.7°C 15% Calm Calm -- 29.55 in1000.7 mb - 0.00 in0.0 mm 0.00 in0.0 mm
10:30 AM 54.1°F12.3°C 8.9°F-12.8°C 16% Calm Calm -- 29.55 in1000.7 mb - 0.00 in0.0 mm 0.00 in0.0 mm
10:20 AM 54.0°F12.2°C 11.3°F-11.5°C 18% Calm Calm -- 29.55 in1000.7 mb - 0.00 in0.0 mm 0.00 in0.0 mm
10:10 AM 54.1°F12.3°C 16.1°F-8.8°C 22% Calm Calm -- 29.55 in1000.7 mb - 0.00 in0.0 mm 0.00 in0.0 mm
10:00 AM 54.1°F12.3°C 16.1°F-8.8°C 22% Calm Calm -- 29.55 in1000.7 mb - 0.00 in0.0 mm 0.00 in0.0 mm
09:50 AM 54.1°F12.3°C 19.0°F-7.2°C 25% Calm Calm -- 29.55 in1000.7 mb - 0.00 in0.0 mm 0.00 in0.0 mm
09:40 AM 54.3°F12.4°C 21.0°F-6.1°C 27% Calm Calm -- 29.55 in1000.7 mb - 0.00 in0.0 mm 0.00 in0.0 mm
09:30 AM 54.7°F12.6°C 23.0°F-5.0°C 29% Calm Calm -- 29.55 in1000.7 mb - 0.00 in0.0 mm 0.00 in0.0 mm
09:20 AM 54.9°F12.7°C 30.3°F-0.9°C 39% Calm Calm -- 29.55 in1000.7 mb - 0.00 in0.0 mm 0.00 in0.0 mm
09:10 AM 55.2°F12.9°C 35.9°F2.2°C 48% Calm Calm -- 29.55 in1000.7 mb - 0.00 in0.0 mm 0.00 in0.0 mm
09:00 AM 55.4°F13.0°C 36.5°F2.5°C 49% Calm Calm -- 29.54 in1000.3 mb - 0.00 in0.0 mm 0.00 in0.0 mm
08:50 AM 55.0°F12.8°C 35.2°F1.8°C 47% Calm Calm -- 29.54 in1000.3 mb - 0.00 in0.0 mm 0.00 in0.0 mm
08:40 AM 55.2°F12.9°C 36.9°F2.7°C 50% Calm Calm -- 29.54 in1000.3 mb - 0.00 in0.0 mm 0.00 in0.0 mm
08:30 AM 55.0°F12.8°C 37.2°F2.9°C 51% Calm Calm -- 29.54 in1000.3 mb - 0.00 in0.0 mm 0.00 in0.0 mm
08:20 AM 55.0°F12.8°C 34.1°F1.2°C 45% Calm Calm -- 29.54 in1000.3 mb - 0.00 in0.0 mm 0.00 in0.0 mm
08:10 AM 55.0°F12.8°C 35.7°F2.1°C 48% Calm Calm -- 29.53 in1000.0 mb - 0.00 in0.0 mm 0.00 in0.0 mm
08:00 AM 55.0°F12.8°C 36.7°F2.6°C 50% Calm Calm -- 29.53 in1000.0 mb - 0.00 in0.0 mm 0.00 in0.0 mm
07:50 AM 54.9°F12.7°C 32.8°F0.4°C 43% Calm Calm -- 29.53 in1000.0 mb - 0.00 in0.0 mm 0.00 in0.0 mm
07:40 AM 54.5°F12.5°C 34.1°F1.2°C 46% Calm Calm -- 29.53 in1000.0 mb - 0.00 in0.0 mm 0.00 in0.0 mm
07:30 AM 54.5°F12.5°C 33.6°F0.9°C 45% Calm Calm -- 29.53 in1000.0 mb - 0.00 in0.0 mm 0.00 in0.0 mm
07:20 AM 54.7°F12.6°C 34.3°F1.3°C 46% Calm Calm -- 29.53 in1000.0 mb - 0.00 in0.0 mm 0.00 in0.0 mm
07:10 AM 54.9°F12.7°C 37.1°F2.8°C 51% Calm Calm -- 29.53 in1000.0 mb - 0.00 in0.0 mm 0.00 in0.0 mm
07:00 AM 55.4°F13.0°C 39.0°F3.9°C 54% Calm Calm -- 29.52 in999.7 mb - 0.00 in0.0 mm 0.00 in0.0 mm
06:50 AM 55.6°F13.1°C 40.1°F4.5°C 56% Calm Calm -- 29.52 in999.7 mb - 0.00 in0.0 mm 0.00 in0.0 mm
06:40 AM 55.8°F13.2°C 41.6°F5.3°C 59% Calm Calm -- 29.52 in999.7 mb - 0.00 in0.0 mm 0.00 in0.0 mm
06:30 AM 55.6°F13.1°C 43.2°F6.2°C 63% Calm Calm -- 29.51 in999.3 mb - 0.00 in0.0 mm 0.00 in0.0 mm
06:20 AM 55.6°F13.1°C 42.8°F6.0°C 62% Calm Calm -- 29.51 in999.3 mb - 0.00 in0.0 mm 0.00 in0.0 mm
06:10 AM 55.6°F13.1°C 41.9°F5.5°C 60% Calm Calm -- 29.50 in999.0 mb - 0.00 in0.0 mm 0.00 in0.0 mm
06:00 AM 55.4°F13.0°C 40.9°F4.9°C 58% Calm Calm -- 29.50 in999.0 mb - 0.00 in0.0 mm 0.00 in0.0 mm
05:50 AM 55.6°F13.1°C 41.5°F5.3°C 59% Calm Calm -- 29.50 in999.0 mb - 0.00 in0.0 mm 0.00 in0.0 mm
05:40 AM 55.6°F13.1°C 41.5°F5.3°C 59% Calm Calm -- 29.50 in999.0 mb - 0.00 in0.0 mm 0.00 in0.0 mm
05:30 AM 55.8°F13.2°C 42.1°F5.6°C 60% Calm Calm -- 29.49 in998.6 mb - 0.00 in0.0 mm 0.00 in0.0 mm
05:20 AM 55.9°F13.3°C 40.0°F4.4°C 55% Calm Calm -- 29.49 in998.6 mb - 0.00 in0.0 mm 0.00 in0.0 mm
05:10 AM 56.3°F13.5°C 44.7°F7.1°C 65% Calm Calm -- 29.49 in998.6 mb - 0.00 in0.0 mm 0.00 in0.0 mm
05:00 AM 56.3°F13.5°C 44.7°F7.1°C 65% Calm Calm -- 29.49 in998.6 mb - 0.00 in0.0 mm 0.00 in0.0 mm
04:50 AM 56.5°F13.6°C 43.6°F6.4°C 62% Calm Calm -- 29.49 in998.6 mb - 0.00 in0.0 mm 0.00 in0.0 mm
04:40 AM 56.7°F13.7°C 43.8°F6.6°C 62% Calm Calm -- 29.49 in998.6 mb - 0.00 in0.0 mm 0.00 in0.0 mm
04:30 AM 56.7°F13.7°C 42.9°F6.1°C 60% Calm Calm -- 29.49 in998.6 mb - 0.00 in0.0 mm 0.00 in0.0 mm
04:20 AM 56.7°F13.7°C 41.6°F5.3°C 57% Calm Calm -- 29.48 in998.3 mb - 0.00 in0.0 mm 0.00 in0.0 mm
04:10 AM 56.7°F13.7°C 42.0°F5.6°C 58% Calm Calm -- 29.48 in998.3 mb - 0.00 in0.0 mm 0.00 in0.0 mm
04:00 AM 56.7°F13.7°C 39.2°F4.0°C 52% Calm Calm -- 29.48 in998.3 mb - 0.00 in0.0 mm 0.00 in0.0 mm
03:50 AM 56.7°F13.7°C 39.7°F4.3°C 53% Calm Calm -- 29.49 in998.6 mb - 0.00 in0.0 mm 0.00 in0.0 mm
03:40 AM 56.3°F13.5°C 36.3°F2.4°C 47% Calm Calm -- 29.49 in998.6 mb - 0.00 in0.0 mm 0.00 in0.0 mm
03:30 AM 56.7°F13.7°C 36.6°F2.6°C 47% Calm Calm -- 29.49 in998.6 mb - 0.00 in0.0 mm 0.00 in0.0 mm
03:20 AM 56.8°F13.8°C 38.9°F3.8°C 51% Calm Calm -- 29.48 in998.3 mb - 0.00 in0.0 mm 0.00 in0.0 mm
03:10 AM 57.2°F14.0°C 41.2°F5.1°C 55% Calm Calm -- 29.49 in998.6 mb - 0.00 in0.0 mm 0.00 in0.0 mm
03:00 AM 57.4°F14.1°C 39.4°F4.1°C 51% Calm Calm -- 29.48 in998.3 mb - 0.00 in0.0 mm 0.00 in0.0 mm
02:50 AM 57.2°F14.0°C 39.2°F4.0°C 51% Calm Calm -- 29.49 in998.6 mb - 0.00 in0.0 mm 0.00 in0.0 mm
02:40 AM 57.4°F14.1°C 36.2°F2.3°C 45% Calm Calm -- 29.49 in998.6 mb - 0.00 in0.0 mm 0.00 in0.0 mm
02:30 AM 57.6°F14.2°C 38.5°F3.6°C 49% Calm Calm -- 29.49 in998.6 mb - 0.00 in0.0 mm 0.00 in0.0 mm
02:10 AM 57.6°F14.2°C 35.2°F1.8°C 43% Calm Calm -- 29.49 in998.6 mb - 0.00 in0.0 mm 0.00 in0.0 mm
01:50 AM 57.6°F14.2°C 36.9°F2.7°C 46% Calm Calm -- 29.48 in998.3 mb - 0.00 in0.0 mm 0.00 in0.0 mm
01:40 AM 57.6°F14.2°C 32.1°F0.1°C 38% Calm Calm -- 29.48 in998.3 mb - 0.00 in0.0 mm 0.00 in0.0 mm
01:20 AM 57.6°F14.2°C 31.5°F-0.3°C 37% Calm Calm -- 29.49 in998.6 mb - 0.00 in0.0 mm 0.00 in0.0 mm
01:10 AM 57.6°F14.2°C 33.4°F0.8°C 40% Calm Calm -- 29.50 in999.0 mb - 0.00 in0.0 mm 0.00 in0.0 mm
01:00 AM 57.4°F14.1°C 35.0°F1.7°C 43% Calm Calm -- 29.49 in998.6 mb - 0.00 in0.0 mm 0.00 in0.0 mm
12:50 AM 57.4°F14.1°C 29.2°F-1.6°C 34% Calm Calm -- 29.49 in998.6 mb - 0.00 in0.0 mm 0.00 in0.0 mm
12:40 AM 56.8°F13.8°C 25.7°F-3.5°C 30% Calm Calm -- 29.49 in998.6 mb - 0.00 in0.0 mm 0.00 in0.0 mm
12:30 AM 56.7°F13.7°C 13.6°F-10.2°C 18% Calm Calm -- 29.48 in998.3 mb - 0.00 in0.0 mm 0.00 in0.0 mm
12:20 AM 56.5°F13.6°C 9.3°F-12.6°C 15% Calm Calm -- 29.48 in998.3 mb - 0.00 in0.0 mm 0.00 in0.0 mm
12:10 AM 55.9°F13.3°C 4.0°F-15.6°C 12% Calm Calm -- 29.48 in998.3 mb - 0.00 in0.0 mm 0.00 in0.0 mm
12:00 AM 55.6°F13.1°C 8.6°F-13.0°C 15% Calm Calm -- 29.48 in998.3 mb - 0.00 in0.0 mm 0.00 in0.0 mm